sensor_id;sensor_type;location;lat;lon;timestamp;P1;durP1;ratioP1;P2;durP2;ratioP2
6432;SDS011;3249;42.690;23.260;2024-01-30T00:00:24;14.33;;;12.33;;
6432;SDS011;3249;42.690;23.260;2024-01-30T00:02:53;18.23;;;11.30;;
6432;SDS011;3249;42.690;23.260;2024-01-30T00:05:22;12.13;;;10.00;;
6432;SDS011;3249;42.690;23.260;2024-01-30T00:07:52;11.43;;;9.43;;
6432;SDS011;3249;42.690;23.260;2024-01-30T00:10:22;10.07;;;8.50;;
6432;SDS011;3249;42.690;23.260;2024-01-30T00:12:52;8.33;;;7.50;;
6432;SDS011;3249;42.690;23.260;2024-01-30T00:15:21;15.03;;;9.00;;
6432;SDS011;3249;42.690;23.260;2024-01-30T00:17:52;23.00;;;10.63;;
6432;SDS011;3249;42.690;23.260;2024-01-30T00:20:22;18.15;;;10.82;;
6432;SDS011;3249;42.690;23.260;2024-01-30T00:22:51;12.90;;;10.50;;
6432;SDS011;3249;42.690;23.260;2024-01-30T00:25:21;10.77;;;9.40;;
6432;SDS011;3249;42.690;23.260;2024-01-30T00:27:50;13.23;;;9.77;;
6432;SDS011;3249;42.690;23.260;2024-01-30T00:30:20;11.63;;;9.47;;
6432;SDS011;3249;42.690;23.260;2024-01-30T00:32:53;8.80;;;7.57;;
6432;SDS011;3249;42.690;23.260;2024-01-30T00:35:22;9.13;;;8.17;;
6432;SDS011;3249;42.690;23.260;2024-01-30T00:37:52;8.97;;;8.07;;
6432;SDS011;3249;42.690;23.260;2024-01-30T00:40:21;8.67;;;7.57;;
6432;SDS011;3249;42.690;23.260;2024-01-30T00:42:51;11.17;;;8.73;;
6432;SDS011;3249;42.690;23.260;2024-01-30T00:45:20;10.20;;;8.20;;
6432;SDS011;3249;42.690;23.260;2024-01-30T00:47:52;9.67;;;8.70;;
6432;SDS011;3249;42.690;23.260;2024-01-30T00:50:21;8.73;;;7.83;;
6432;SDS011;3249;42.690;23.260;2024-01-30T00:52:51;7.80;;;7.00;;
6432;SDS011;3249;42.690;23.260;2024-01-30T00:55:20;9.83;;;8.37;;
6432;SDS011;3249;42.690;23.260;2024-01-30T00:57:50;7.83;;;7.23;;
6432;SDS011;3249;42.690;23.260;2024-01-30T01:00:19;7.57;;;6.87;;
6432;SDS011;3249;42.690;23.260;2024-01-30T01:02:57;14.47;;;8.37;;
6432;SDS011;3249;42.690;23.260;2024-01-30T01:05:26;9.27;;;8.27;;
6432;SDS011;3249;42.690;23.260;2024-01-30T01:07:56;9.50;;;7.73;;
6432;SDS011;3249;42.690;23.260;2024-01-30T01:10:26;10.83;;;9.00;;
6432;SDS011;3249;42.690;23.260;2024-01-30T01:12:55;21.23;;;10.10;;
6432;SDS011;3249;42.690;23.260;2024-01-30T01:15:24;13.60;;;11.00;;
6432;SDS011;3249;42.690;23.260;2024-01-30T01:17:57;10.80;;;9.57;;
6432;SDS011;3249;42.690;23.260;2024-01-30T01:20:26;9.80;;;8.90;;
6432;SDS011;3249;42.690;23.260;2024-01-30T01:22:55;10.40;;;9.30;;
6432;SDS011;3249;42.690;23.260;2024-01-30T01:25:24;12.03;;;9.87;;
6432;SDS011;3249;42.690;23.260;2024-01-30T01:27:54;13.30;;;10.43;;
6432;SDS011;3249;42.690;23.260;2024-01-30T01:30:23;11.83;;;10.60;;
6432;SDS011;3249;42.690;23.260;2024-01-30T01:32:52;16.17;;;12.27;;
6432;SDS011;3249;42.690;23.260;2024-01-30T01:35:29;15.20;;;11.57;;
6432;SDS011;3249;42.690;23.260;2024-01-30T01:37:58;13.93;;;11.13;;
6432;SDS011;3249;42.690;23.260;2024-01-30T01:40:28;13.70;;;12.10;;
6432;SDS011;3249;42.690;23.260;2024-01-30T01:42:57;15.07;;;12.33;;
6432;SDS011;3249;42.690;23.260;2024-01-30T01:45:27;10.43;;;9.33;;
6432;SDS011;3249;42.690;23.260;2024-01-30T01:47:56;10.17;;;8.63;;
6432;SDS011;3249;42.690;23.260;2024-01-30T01:50:26;9.67;;;8.63;;
6432;SDS011;3249;42.690;23.260;2024-01-30T01:52:58;12.23;;;9.90;;
6432;SDS011;3249;42.690;23.260;2024-01-30T01:55:27;10.82;;;9.38;;
6432;SDS011;3249;42.690;23.260;2024-01-30T01:57:58;9.75;;;8.80;;
6432;SDS011;3249;42.690;23.260;2024-01-30T02:00:29;9.43;;;8.23;;
6432;SDS011;3249;42.690;23.260;2024-01-30T02:02:58;9.20;;;8.35;;
6432;SDS011;3249;42.690;23.260;2024-01-30T02:05:31;9.25;;;8.35;;
6432;SDS011;3249;42.690;23.260;2024-01-30T02:08:01;8.48;;;7.68;;
6432;SDS011;3249;42.690;23.260;2024-01-30T02:10:30;10.50;;;8.50;;
6432;SDS011;3249;42.690;23.260;2024-01-30T02:13:00;8.63;;;7.88;;
6432;SDS011;3249;42.690;23.260;2024-01-30T02:15:30;10.23;;;8.77;;
6432;SDS011;3249;42.690;23.260;2024-01-30T02:17:59;8.47;;;7.70;;
6432;SDS011;3249;42.690;23.260;2024-01-30T02:20:32;11.00;;;9.20;;
6432;SDS011;3249;42.690;23.260;2024-01-30T02:23:07;9.25;;;8.35;;
6432;SDS011;3249;42.690;23.260;2024-01-30T02:25:39;8.05;;;7.38;;
6432;SDS011;3249;42.690;23.260;2024-01-30T02:28:10;9.15;;;8.30;;
6432;SDS011;3249;42.690;23.260;2024-01-30T02:30:40;9.02;;;8.18;;
6432;SDS011;3249;42.690;23.260;2024-01-30T02:33:11;8.65;;;7.75;;
6432;SDS011;3249;42.690;23.260;2024-01-30T02:35:41;8.57;;;7.77;;
6432;SDS011;3249;42.690;23.260;2024-01-30T02:38:14;8.87;;;8.00;;
6432;SDS011;3249;42.690;23.260;2024-01-30T02:40:44;8.57;;;7.87;;
6432;SDS011;3249;42.690;23.260;2024-01-30T02:43:13;8.35;;;7.63;;
6432;SDS011;3249;42.690;23.260;2024-01-30T02:45:43;9.10;;;8.30;;
6432;SDS011;3249;42.690;23.260;2024-01-30T02:48:13;9.00;;;8.20;;
6432;SDS011;3249;42.690;23.260;2024-01-30T02:50:42;8.80;;;8.00;;
6432;SDS011;3249;42.690;23.260;2024-01-30T02:53:15;8.93;;;8.13;;
6432;SDS011;3249;42.690;23.260;2024-01-30T02:55:44;8.17;;;7.47;;
6432;SDS011;3249;42.690;23.260;2024-01-30T02:58:13;16.17;;;7.90;;
6432;SDS011;3249;42.690;23.260;2024-01-30T03:00:42;9.17;;;8.27;;
6432;SDS011;3249;42.690;23.260;2024-01-30T03:03:12;10.50;;;8.30;;
6432;SDS011;3249;42.690;23.260;2024-01-30T03:05:41;7.50;;;6.90;;
6432;SDS011;3249;42.690;23.260;2024-01-30T03:08:10;7.03;;;6.33;;
6432;SDS011;3249;42.690;23.260;2024-01-30T03:10:43;9.43;;;8.10;;
6432;SDS011;3249;42.690;23.260;2024-01-30T03:13:12;10.77;;;8.60;;
6432;SDS011;3249;42.690;23.260;2024-01-30T03:15:42;10.67;;;8.10;;
6432;SDS011;3249;42.690;23.260;2024-01-30T03:18:11;8.70;;;7.78;;
6432;SDS011;3249;42.690;23.260;2024-01-30T03:20:40;8.93;;;7.43;;
6432;SDS011;3249;42.690;23.260;2024-01-30T03:23:10;7.65;;;6.95;;
6432;SDS011;3249;42.690;23.260;2024-01-30T03:25:39;7.78;;;7.07;;
6432;SDS011;3249;42.690;23.260;2024-01-30T03:28:11;7.27;;;6.67;;
6432;SDS011;3249;42.690;23.260;2024-01-30T03:30:40;7.68;;;7.00;;
6432;SDS011;3249;42.690;23.260;2024-01-30T03:33:10;8.30;;;7.60;;
6432;SDS011;3249;42.690;23.260;2024-01-30T03:35:39;8.47;;;7.73;;
6432;SDS011;3249;42.690;23.260;2024-01-30T03:38:09;8.37;;;7.67;;
6432;SDS011;3249;42.690;23.260;2024-01-30T03:40:38;13.43;;;9.60;;
6432;SDS011;3249;42.690;23.260;2024-01-30T03:43:07;6.70;;;6.20;;
6432;SDS011;3249;42.690;23.260;2024-01-30T03:45:38;9.83;;;7.93;;
6432;SDS011;3249;42.690;23.260;2024-01-30T03:48:09;7.82;;;6.93;;
6432;SDS011;3249;42.690;23.260;2024-01-30T03:50:45;6.78;;;6.28;;
6432;SDS011;3249;42.690;23.260;2024-01-30T03:53:14;6.72;;;6.13;;
6432;SDS011;3249;42.690;23.260;2024-01-30T03:55:43;6.83;;;6.33;;
6432;SDS011;3249;42.690;23.260;2024-01-30T03:58:14;6.43;;;5.80;;
6432;SDS011;3249;42.690;23.260;2024-01-30T04:00:45;5.82;;;5.43;;
6432;SDS011;3249;42.690;23.260;2024-01-30T04:03:15;7.00;;;6.37;;
6432;SDS011;3249;42.690;23.260;2024-01-30T04:05:44;7.70;;;6.87;;
6432;SDS011;3249;42.690;23.260;2024-01-30T04:08:14;7.07;;;6.38;;
6432;SDS011;3249;42.690;23.260;2024-01-30T04:10:45;6.90;;;6.33;;
6432;SDS011;3249;42.690;23.260;2024-01-30T04:13:14;6.82;;;6.13;;
6432;SDS011;3249;42.690;23.260;2024-01-30T04:15:46;7.50;;;6.13;;
6432;SDS011;3249;42.690;23.260;2024-01-30T04:18:15;11.23;;;7.15;;
6432;SDS011;3249;42.690;23.260;2024-01-30T04:20:45;7.45;;;6.75;;
6432;SDS011;3249;42.690;23.260;2024-01-30T04:23:14;8.80;;;8.10;;
6432;SDS011;3249;42.690;23.260;2024-01-30T04:25:44;9.55;;;8.35;;
6432;SDS011;3249;42.690;23.260;2024-01-30T04:28:13;10.23;;;8.88;;
6432;SDS011;3249;42.690;23.260;2024-01-30T04:30:42;8.30;;;7.22;;
6432;SDS011;3249;42.690;23.260;2024-01-30T04:33:15;10.20;;;8.30;;
6432;SDS011;3249;42.690;23.260;2024-01-30T04:35:44;10.73;;;8.13;;
6432;SDS011;3249;42.690;23.260;2024-01-30T04:38:13;8.07;;;6.68;;
6432;SDS011;3249;42.690;23.260;2024-01-30T04:40:42;6.45;;;5.82;;
6432;SDS011;3249;42.690;23.260;2024-01-30T04:43:12;7.88;;;7.07;;
6432;SDS011;3249;42.690;23.260;2024-01-30T04:45:42;7.10;;;6.60;;
6432;SDS011;3249;42.690;23.260;2024-01-30T04:48:11;6.97;;;5.60;;
6432;SDS011;3249;42.690;23.260;2024-01-30T04:50:43;10.80;;;8.00;;
6432;SDS011;3249;42.690;23.260;2024-01-30T04:53:12;7.93;;;6.85;;
6432;SDS011;3249;42.690;23.260;2024-01-30T04:55:41;11.88;;;9.50;;
6432;SDS011;3249;42.690;23.260;2024-01-30T04:58:10;9.83;;;8.77;;
6432;SDS011;3249;42.690;23.260;2024-01-30T05:00:40;16.17;;;11.52;;
6432;SDS011;3249;42.690;23.260;2024-01-30T05:03:09;9.63;;;8.63;;
6432;SDS011;3249;42.690;23.260;2024-01-30T05:05:38;9.13;;;7.65;;
6432;SDS011;3249;42.690;23.260;2024-01-30T05:08:10;7.57;;;6.93;;
6432;SDS011;3249;42.690;23.260;2024-01-30T05:10:40;9.07;;;8.25;;
6432;SDS011;3249;42.690;23.260;2024-01-30T05:13:10;9.38;;;8.27;;
6432;SDS011;3249;42.690;23.260;2024-01-30T05:15:39;10.77;;;8.43;;
6432;SDS011;3249;42.690;23.260;2024-01-30T05:18:09;10.90;;;7.35;;
6432;SDS011;3249;42.690;23.260;2024-01-30T05:20:38;8.68;;;7.80;;
6432;SDS011;3249;42.690;23.260;2024-01-30T05:23:11;11.15;;;9.45;;
6432;SDS011;3249;42.690;23.260;2024-01-30T05:25:40;10.32;;;8.77;;
6432;SDS011;3249;42.690;23.260;2024-01-30T05:28:09;12.60;;;8.32;;
6432;SDS011;3249;42.690;23.260;2024-01-30T05:30:38;10.43;;;8.15;;
6432;SDS011;3249;42.690;23.260;2024-01-30T05:33:07;15.43;;;11.55;;
6432;SDS011;3249;42.690;23.260;2024-01-30T05:35:37;18.23;;;12.20;;
6432;SDS011;3249;42.690;23.260;2024-01-30T05:38:07;21.38;;;13.18;;
6432;SDS011;3249;42.690;23.260;2024-01-30T05:40:39;19.35;;;13.13;;
6432;SDS011;3249;42.690;23.260;2024-01-30T05:43:08;19.38;;;14.63;;
6432;SDS011;3249;42.690;23.260;2024-01-30T05:45:38;19.40;;;14.60;;
6432;SDS011;3249;42.690;23.260;2024-01-30T05:48:07;25.30;;;14.07;;
6432;SDS011;3249;42.690;23.260;2024-01-30T05:50:37;28.70;;;16.58;;
6432;SDS011;3249;42.690;23.260;2024-01-30T05:53:06;16.17;;;14.45;;
6432;SDS011;3249;42.690;23.260;2024-01-30T05:55:35;17.83;;;12.18;;
6432;SDS011;3249;42.690;23.260;2024-01-30T05:58:08;32.38;;;14.85;;
6432;SDS011;3249;42.690;23.260;2024-01-30T06:00:37;28.20;;;18.05;;
6432;SDS011;3249;42.690;23.260;2024-01-30T06:03:07;39.33;;;20.20;;
6432;SDS011;3249;42.690;23.260;2024-01-30T06:05:36;16.67;;;11.68;;
6432;SDS011;3249;42.690;23.260;2024-01-30T06:08:05;20.15;;;15.45;;
6432;SDS011;3249;42.690;23.260;2024-01-30T06:10:35;21.27;;;15.18;;
6432;SDS011;3249;42.690;23.260;2024-01-30T06:13:05;25.13;;;18.48;;
6432;SDS011;3249;42.690;23.260;2024-01-30T06:15:37;21.23;;;16.75;;
6432;SDS011;3249;42.690;23.260;2024-01-30T06:18:07;14.68;;;10.73;;
6432;SDS011;3249;42.690;23.260;2024-01-30T06:20:36;11.90;;;8.73;;
6432;SDS011;3249;42.690;23.260;2024-01-30T06:23:05;11.95;;;9.07;;
6432;SDS011;3249;42.690;23.260;2024-01-30T06:25:38;9.85;;;8.85;;
6432;SDS011;3249;42.690;23.260;2024-01-30T06:28:10;10.95;;;9.02;;
6432;SDS011;3249;42.690;23.260;2024-01-30T06:30:39;8.82;;;7.90;;
6432;SDS011;3249;42.690;23.260;2024-01-30T06:33:11;11.30;;;7.43;;
6432;SDS011;3249;42.690;23.260;2024-01-30T06:35:41;9.02;;;6.93;;
6432;SDS011;3249;42.690;23.260;2024-01-30T06:38:11;7.20;;;6.50;;
6432;SDS011;3249;42.690;23.260;2024-01-30T06:40:41;6.68;;;5.95;;
6432;SDS011;3249;42.690;23.260;2024-01-30T06:43:13;11.48;;;7.20;;
6432;SDS011;3249;42.690;23.260;2024-01-30T06:45:42;13.80;;;6.68;;
6432;SDS011;3249;42.690;23.260;2024-01-30T06:48:12;9.73;;;7.40;;
6432;SDS011;3249;42.690;23.260;2024-01-30T06:50:41;14.17;;;11.47;;
6432;SDS011;3249;42.690;23.260;2024-01-30T06:53:11;21.00;;;14.15;;
6432;SDS011;3249;42.690;23.260;2024-01-30T06:55:49;16.90;;;9.77;;
6432;SDS011;3249;42.690;23.260;2024-01-30T06:58:22;11.40;;;7.43;;
6432;SDS011;3249;42.690;23.260;2024-01-30T07:00:51;6.07;;;5.47;;
6432;SDS011;3249;42.690;23.260;2024-01-30T07:03:20;8.40;;;6.38;;
6432;SDS011;3249;42.690;23.260;2024-01-30T07:05:50;11.23;;;6.77;;
6432;SDS011;3249;42.690;23.260;2024-01-30T07:08:20;7.53;;;6.83;;
6432;SDS011;3249;42.690;23.260;2024-01-30T07:10:49;10.97;;;7.07;;
6432;SDS011;3249;42.690;23.260;2024-01-30T07:13:23;11.80;;;7.50;;
6432;SDS011;3249;42.690;23.260;2024-01-30T07:15:54;13.13;;;7.93;;
6432;SDS011;3249;42.690;23.260;2024-01-30T07:18:24;8.10;;;6.53;;
6432;SDS011;3249;42.690;23.260;2024-01-30T07:20:54;10.43;;;6.17;;
6432;SDS011;3249;42.690;23.260;2024-01-30T07:23:23;12.83;;;8.33;;
6432;SDS011;3249;42.690;23.260;2024-01-30T07:25:52;11.73;;;7.00;;
6432;SDS011;3249;42.690;23.260;2024-01-30T07:28:24;9.20;;;7.70;;
6432;SDS011;3249;42.690;23.260;2024-01-30T07:30:57;7.13;;;6.43;;
6432;SDS011;3249;42.690;23.260;2024-01-30T07:33:26;6.40;;;5.80;;
6432;SDS011;3249;42.690;23.260;2024-01-30T07:35:55;9.03;;;8.13;;
6432;SDS011;3249;42.690;23.260;2024-01-30T07:38:24;9.63;;;7.53;;
6432;SDS011;3249;42.690;23.260;2024-01-30T07:40:53;6.27;;;5.67;;
6432;SDS011;3249;42.690;23.260;2024-01-30T07:43:26;10.20;;;5.90;;
6432;SDS011;3249;42.690;23.260;2024-01-30T07:45:55;6.00;;;5.40;;
6432;SDS011;3249;42.690;23.260;2024-01-30T07:48:26;6.47;;;5.97;;
6432;SDS011;3249;42.690;23.260;2024-01-30T07:50:55;6.67;;;6.17;;
6432;SDS011;3249;42.690;23.260;2024-01-30T07:53:27;10.67;;;8.13;;
6432;SDS011;3249;42.690;23.260;2024-01-30T07:55:56;7.97;;;7.33;;
6432;SDS011;3249;42.690;23.260;2024-01-30T07:58:28;8.30;;;7.50;;
6432;SDS011;3249;42.690;23.260;2024-01-30T08:00:57;7.40;;;6.20;;
6432;SDS011;3249;42.690;23.260;2024-01-30T08:03:26;7.60;;;6.93;;
6432;SDS011;3249;42.690;23.260;2024-01-30T08:05:55;9.67;;;7.83;;
6432;SDS011;3249;42.690;23.260;2024-01-30T08:08:25;8.57;;;6.83;;
6432;SDS011;3249;42.690;23.260;2024-01-30T08:10:55;6.93;;;6.33;;
6432;SDS011;3249;42.690;23.260;2024-01-30T08:13:24;7.70;;;7.00;;
6432;SDS011;3249;42.690;23.260;2024-01-30T08:15:56;9.57;;;6.00;;
6432;SDS011;3249;42.690;23.260;2024-01-30T08:18:25;10.30;;;7.10;;
6432;SDS011;3249;42.690;23.260;2024-01-30T08:20:55;10.70;;;7.43;;
6432;SDS011;3249;42.690;23.260;2024-01-30T08:23:24;7.70;;;7.00;;
6432;SDS011;3249;42.690;23.260;2024-01-30T08:25:53;8.17;;;7.37;;
6432;SDS011;3249;42.690;23.260;2024-01-30T08:28:22;18.03;;;15.17;;
6432;SDS011;3249;42.690;23.260;2024-01-30T08:30:52;26.07;;;17.07;;
6432;SDS011;3249;42.690;23.260;2024-01-30T08:33:24;14.00;;;11.60;;
6432;SDS011;3249;42.690;23.260;2024-01-30T08:35:53;14.93;;;10.43;;
6432;SDS011;3249;42.690;23.260;2024-01-30T08:38:22;10.90;;;9.90;;
6432;SDS011;3249;42.690;23.260;2024-01-30T08:40:52;11.33;;;8.20;;
6432;SDS011;3249;42.690;23.260;2024-01-30T08:43:21;8.40;;;7.60;;
6432;SDS011;3249;42.690;23.260;2024-01-30T08:45:51;22.10;;;18.03;;
6432;SDS011;3249;42.690;23.260;2024-01-30T08:48:20;12.33;;;9.83;;
6432;SDS011;3249;42.690;23.260;2024-01-30T08:50:53;11.70;;;8.07;;
6432;SDS011;3249;42.690;23.260;2024-01-30T08:53:23;19.37;;;9.80;;
6432;SDS011;3249;42.690;23.260;2024-01-30T08:55:53;11.97;;;9.67;;
6432;SDS011;3249;42.690;23.260;2024-01-30T08:58:24;8.80;;;7.17;;
6432;SDS011;3249;42.690;23.260;2024-01-30T09:00:54;9.63;;;7.47;;
6432;SDS011;3249;42.690;23.260;2024-01-30T09:03:23;11.97;;;8.97;;
6432;SDS011;3249;42.690;23.260;2024-01-30T09:05:55;14.07;;;11.13;;
6432;SDS011;3249;42.690;23.260;2024-01-30T09:08:25;7.93;;;7.20;;
6432;SDS011;3249;42.690;23.260;2024-01-30T09:10:55;8.20;;;7.13;;
6432;SDS011;3249;42.690;23.260;2024-01-30T09:13:25;8.20;;;7.33;;
6432;SDS011;3249;42.690;23.260;2024-01-30T09:15:54;17.00;;;8.50;;
6432;SDS011;3249;42.690;23.260;2024-01-30T09:18:23;12.10;;;9.03;;
6432;SDS011;3249;42.690;23.260;2024-01-30T09:20:52;15.03;;;11.53;;
6432;SDS011;3249;42.690;23.260;2024-01-30T09:23:24;16.40;;;11.00;;
6432;SDS011;3249;42.690;23.260;2024-01-30T09:25:56;13.03;;;9.70;;
6432;SDS011;3249;42.690;23.260;2024-01-30T09:28:25;11.47;;;9.03;;
6432;SDS011;3249;42.690;23.260;2024-01-30T09:30:54;11.20;;;8.53;;
6432;SDS011;3249;42.690;23.260;2024-01-30T09:33:24;11.73;;;9.70;;
6432;SDS011;3249;42.690;23.260;2024-01-30T09:35:53;10.20;;;9.20;;
6432;SDS011;3249;42.690;23.260;2024-01-30T09:38:21;11.80;;;9.50;;
6432;SDS011;3249;42.690;23.260;2024-01-30T09:40:53;10.30;;;9.30;;
6432;SDS011;3249;42.690;23.260;2024-01-30T09:43:23;7.73;;;6.93;;
6432;SDS011;3249;42.690;23.260;2024-01-30T09:45:52;8.37;;;7.63;;
6432;SDS011;3249;42.690;23.260;2024-01-30T09:48:22;9.07;;;7.93;;
6432;SDS011;3249;42.690;23.260;2024-01-30T09:50:52;7.97;;;7.27;;
6432;SDS011;3249;42.690;23.260;2024-01-30T09:53:25;7.80;;;7.10;;
6432;SDS011;3249;42.690;23.260;2024-01-30T09:55:55;7.90;;;6.30;;
6432;SDS011;3249;42.690;23.260;2024-01-30T09:58:25;11.43;;;8.63;;
6432;SDS011;3249;42.690;23.260;2024-01-30T10:00:54;8.97;;;6.50;;
6432;SDS011;3249;42.690;23.260;2024-01-30T10:03:25;12.17;;;9.47;;
6432;SDS011;3249;42.690;23.260;2024-01-30T10:05:55;13.23;;;10.93;;
6432;SDS011;3249;42.690;23.260;2024-01-30T10:08:28;7.33;;;6.70;;
6432;SDS011;3249;42.690;23.260;2024-01-30T10:11:00;8.90;;;7.57;;
6432;SDS011;3249;42.690;23.260;2024-01-30T10:13:29;8.40;;;7.67;;
6432;SDS011;3249;42.690;23.260;2024-01-30T10:15:59;9.33;;;6.30;;
6432;SDS011;3249;42.690;23.260;2024-01-30T10:18:28;9.10;;;6.63;;
6432;SDS011;3249;42.690;23.260;2024-01-30T10:20:58;9.17;;;8.27;;
6432;SDS011;3249;42.690;23.260;2024-01-30T10:23:31;12.90;;;9.47;;
6432;SDS011;3249;42.690;23.260;2024-01-30T10:26:02;6.63;;;6.03;;
6432;SDS011;3249;42.690;23.260;2024-01-30T10:28:32;6.53;;;5.90;;
6432;SDS011;3249;42.690;23.260;2024-01-30T10:31:01;6.37;;;5.87;;
6432;SDS011;3249;42.690;23.260;2024-01-30T10:33:32;8.67;;;7.80;;
6432;SDS011;3249;42.690;23.260;2024-01-30T10:36:02;9.93;;;8.33;;
6432;SDS011;3249;42.690;23.260;2024-01-30T10:38:34;12.43;;;10.10;;
6432;SDS011;3249;42.690;23.260;2024-01-30T10:41:06;7.23;;;6.63;;
6432;SDS011;3249;42.690;23.260;2024-01-30T10:43:40;8.23;;;7.53;;
6432;SDS011;3249;42.690;23.260;2024-01-30T10:46:10;9.90;;;8.97;;
6432;SDS011;3249;42.690;23.260;2024-01-30T10:48:50;9.50;;;8.57;;
6432;SDS011;3249;42.690;23.260;2024-01-30T10:51:26;12.47;;;9.30;;
6432;SDS011;3249;42.690;23.260;2024-01-30T10:53:59;7.37;;;6.67;;
6432;SDS011;3249;42.690;23.260;2024-01-30T10:56:29;7.57;;;6.87;;
6432;SDS011;3249;42.690;23.260;2024-01-30T10:59:00;8.97;;;7.80;;
6432;SDS011;3249;42.690;23.260;2024-01-30T11:01:30;10.40;;;8.27;;
6432;SDS011;3249;42.690;23.260;2024-01-30T11:04:00;5.70;;;5.20;;
6432;SDS011;3249;42.690;23.260;2024-01-30T11:06:31;16.73;;;12.33;;
6432;SDS011;3249;42.690;23.260;2024-01-30T11:09:03;6.97;;;6.47;;
6432;SDS011;3249;42.690;23.260;2024-01-30T11:11:47;9.80;;;8.87;;
6432;SDS011;3249;42.690;23.260;2024-01-30T11:14:22;7.50;;;6.87;;
6432;SDS011;3249;42.690;23.260;2024-01-30T11:16:56;10.23;;;8.67;;
6432;SDS011;3249;42.690;23.260;2024-01-30T11:19:26;9.13;;;8.17;;
6432;SDS011;3249;42.690;23.260;2024-01-30T11:21:55;9.30;;;8.40;;
6432;SDS011;3249;42.690;23.260;2024-01-30T11:24:27;10.83;;;8.70;;
6432;SDS011;3249;42.690;23.260;2024-01-30T11:26:58;8.37;;;7.67;;
6432;SDS011;3249;42.690;23.260;2024-01-30T11:29:24;5.20;;;4.80;;
6432;SDS011;3249;42.690;23.260;2024-01-30T11:31:54;6.10;;;5.50;;
6432;SDS011;3249;42.690;23.260;2024-01-30T11:34:24;7.57;;;6.77;;
6432;SDS011;3249;42.690;23.260;2024-01-30T11:36:55;12.00;;;7.27;;
6432;SDS011;3249;42.690;23.260;2024-01-30T11:39:31;6.20;;;5.70;;
6432;SDS011;3249;42.690;23.260;2024-01-30T11:42:00;5.30;;;4.90;;
6432;SDS011;3249;42.690;23.260;2024-01-30T11:44:30;8.10;;;7.40;;
6432;SDS011;3249;42.690;23.260;2024-01-30T11:46:59;6.70;;;6.10;;
6432;SDS011;3249;42.690;23.260;2024-01-30T11:49:29;5.93;;;4.93;;
6432;SDS011;3249;42.690;23.260;2024-01-30T11:52:00;6.43;;;5.93;;
6432;SDS011;3249;42.690;23.260;2024-01-30T11:54:32;6.97;;;6.37;;
6432;SDS011;3249;42.690;23.260;2024-01-30T11:57:01;6.90;;;6.30;;
6432;SDS011;3249;42.690;23.260;2024-01-30T11:59:31;10.53;;;9.50;;
6432;SDS011;3249;42.690;23.260;2024-01-30T12:02:00;8.07;;;7.37;;
6432;SDS011;3249;42.690;23.260;2024-01-30T12:04:32;9.60;;;8.70;;
6432;SDS011;3249;42.690;23.260;2024-01-30T12:07:03;9.80;;;7.37;;
6432;SDS011;3249;42.690;23.260;2024-01-30T12:09:35;8.60;;;7.70;;
6432;SDS011;3249;42.690;23.260;2024-01-30T12:12:06;6.77;;;6.27;;
6432;SDS011;3249;42.690;23.260;2024-01-30T12:14:37;9.87;;;7.40;;
6432;SDS011;3249;42.690;23.260;2024-01-30T12:17:08;8.07;;;7.27;;
6432;SDS011;3249;42.690;23.260;2024-01-30T12:19:38;14.77;;;9.13;;
6432;SDS011;3249;42.690;23.260;2024-01-30T12:22:07;6.80;;;6.20;;
6432;SDS011;3249;42.690;23.260;2024-01-30T12:24:42;7.70;;;6.57;;
6432;SDS011;3249;42.690;23.260;2024-01-30T12:27:14;6.43;;;5.83;;
6432;SDS011;3249;42.690;23.260;2024-01-30T12:29:44;12.20;;;8.80;;
6432;SDS011;3249;42.690;23.260;2024-01-30T12:32:15;15.17;;;9.37;;
6432;SDS011;3249;42.690;23.260;2024-01-30T12:34:44;7.43;;;6.67;;
6432;SDS011;3249;42.690;23.260;2024-01-30T12:37:14;6.40;;;5.83;;
6432;SDS011;3249;42.690;23.260;2024-01-30T12:39:50;7.17;;;6.40;;
6432;SDS011;3249;42.690;23.260;2024-01-30T12:42:21;12.47;;;9.87;;
6432;SDS011;3249;42.690;23.260;2024-01-30T12:44:50;9.30;;;8.00;;
6432;SDS011;3249;42.690;23.260;2024-01-30T12:47:22;11.10;;;7.77;;
6432;SDS011;3249;42.690;23.260;2024-01-30T12:49:51;7.63;;;6.80;;
6432;SDS011;3249;42.690;23.260;2024-01-30T12:52:20;7.60;;;6.97;;
6432;SDS011;3249;42.690;23.260;2024-01-30T12:54:53;8.83;;;7.93;;
6432;SDS011;3249;42.690;23.260;2024-01-30T12:57:23;9.43;;;7.53;;
6432;SDS011;3249;42.690;23.260;2024-01-30T12:59:52;7.07;;;6.57;;
6432;SDS011;3249;42.690;23.260;2024-01-30T13:02:22;13.50;;;10.07;;
6432;SDS011;3249;42.690;23.260;2024-01-30T13:04:52;11.80;;;10.03;;
6432;SDS011;3249;42.690;23.260;2024-01-30T13:07:21;17.20;;;14.53;;
6432;SDS011;3249;42.690;23.260;2024-01-30T13:09:52;12.07;;;9.23;;
6432;SDS011;3249;42.690;23.260;2024-01-30T13:12:22;6.57;;;5.90;;
6432;SDS011;3249;42.690;23.260;2024-01-30T13:14:51;11.97;;;9.47;;
6432;SDS011;3249;42.690;23.260;2024-01-30T13:17:20;7.47;;;6.67;;
6432;SDS011;3249;42.690;23.260;2024-01-30T13:19:51;8.77;;;6.00;;
6432;SDS011;3249;42.690;23.260;2024-01-30T13:22:20;12.57;;;9.53;;
6432;SDS011;3249;42.690;23.260;2024-01-30T13:24:49;14.27;;;10.73;;
6432;SDS011;3249;42.690;23.260;2024-01-30T13:27:21;11.73;;;9.57;;
6432;SDS011;3249;42.690;23.260;2024-01-30T13:29:51;16.10;;;10.33;;
6432;SDS011;3249;42.690;23.260;2024-01-30T13:32:20;9.27;;;8.13;;
6432;SDS011;3249;42.690;23.260;2024-01-30T13:34:50;16.87;;;9.73;;
6432;SDS011;3249;42.690;23.260;2024-01-30T13:37:19;7.53;;;6.83;;
6432;SDS011;3249;42.690;23.260;2024-01-30T13:39:48;7.80;;;7.10;;
6432;SDS011;3249;42.690;23.260;2024-01-30T13:42:20;9.00;;;8.10;;
6432;SDS011;3249;42.690;23.260;2024-01-30T13:44:50;10.93;;;9.50;;
6432;SDS011;3249;42.690;23.260;2024-01-30T13:47:20;9.20;;;7.20;;
6432;SDS011;3249;42.690;23.260;2024-01-30T13:49:49;8.27;;;6.80;;
6432;SDS011;3249;42.690;23.260;2024-01-30T13:52:18;7.77;;;7.00;;
6432;SDS011;3249;42.690;23.260;2024-01-30T13:54:48;6.73;;;6.13;;
6432;SDS011;3249;42.690;23.260;2024-01-30T13:57:20;10.80;;;9.47;;
6432;SDS011;3249;42.690;23.260;2024-01-30T13:59:49;8.13;;;7.07;;
6432;SDS011;3249;42.690;23.260;2024-01-30T14:02:19;9.43;;;6.67;;
6432;SDS011;3249;42.690;23.260;2024-01-30T14:04:48;7.67;;;7.07;;
6432;SDS011;3249;42.690;23.260;2024-01-30T14:07:18;12.60;;;9.97;;
6432;SDS011;3249;42.690;23.260;2024-01-30T14:09:47;12.50;;;9.83;;
6432;SDS011;3249;42.690;23.260;2024-01-30T14:12:17;8.93;;;8.00;;
6432;SDS011;3249;42.690;23.260;2024-01-30T14:14:49;14.13;;;7.23;;
6432;SDS011;3249;42.690;23.260;2024-01-30T14:17:19;7.93;;;7.13;;
6432;SDS011;3249;42.690;23.260;2024-01-30T14:19:48;17.33;;;9.30;;
6432;SDS011;3249;42.690;23.260;2024-01-30T14:22:17;11.47;;;9.90;;
6432;SDS011;3249;42.690;23.260;2024-01-30T14:24:46;10.00;;;8.53;;
6432;SDS011;3249;42.690;23.260;2024-01-30T14:27:15;11.23;;;7.90;;
6432;SDS011;3249;42.690;23.260;2024-01-30T14:29:47;12.60;;;9.23;;
6432;SDS011;3249;42.690;23.260;2024-01-30T14:32:17;11.23;;;9.90;;
6432;SDS011;3249;42.690;23.260;2024-01-30T14:34:46;15.33;;;9.50;;
6432;SDS011;3249;42.690;23.260;2024-01-30T14:37:15;10.13;;;8.00;;
6432;SDS011;3249;42.690;23.260;2024-01-30T14:39:45;13.27;;;9.27;;
6432;SDS011;3249;42.690;23.260;2024-01-30T14:42:14;17.53;;;13.83;;
6432;SDS011;3249;42.690;23.260;2024-01-30T14:44:47;27.60;;;18.27;;
6432;SDS011;3249;42.690;23.260;2024-01-30T14:47:17;22.07;;;14.53;;
6432;SDS011;3249;42.690;23.260;2024-01-30T14:49:46;14.40;;;12.60;;
6432;SDS011;3249;42.690;23.260;2024-01-30T14:52:17;12.53;;;8.80;;
6432;SDS011;3249;42.690;23.260;2024-01-30T14:54:46;8.13;;;7.20;;
6432;SDS011;3249;42.690;23.260;2024-01-30T14:57:15;12.73;;;8.87;;
6432;SDS011;3249;42.690;23.260;2024-01-30T14:59:48;15.07;;;10.40;;
6432;SDS011;3249;42.690;23.260;2024-01-30T15:02:17;11.10;;;9.27;;
6432;SDS011;3249;42.690;23.260;2024-01-30T15:04:47;10.63;;;8.47;;
6432;SDS011;3249;42.690;23.260;2024-01-30T15:07:16;11.30;;;8.27;;
6432;SDS011;3249;42.690;23.260;2024-01-30T15:09:46;18.63;;;12.63;;